sensor_id;sensor_type;location;lat;lon;timestamp;P1;durP1;ratioP1;P2;durP2;ratioP2
4527;SDS011;62320;51.520;6.818;2022-11-21T00:09:19;36.97;;;14.55;;
4527;SDS011;62320;51.520;6.818;2022-11-21T00:19:20;26.70;;;10.53;;
4527;SDS011;62320;51.520;6.818;2022-11-21T00:29:22;31.10;;;11.70;;
4527;SDS011;62320;51.520;6.818;2022-11-21T00:39:24;21.33;;;9.90;;
4527;SDS011;62320;51.520;6.818;2022-11-21T00:49:25;35.87;;;13.07;;
4527;SDS011;62320;51.520;6.818;2022-11-21T00:59:27;39.67;;;14.67;;
4527;SDS011;62320;51.520;6.818;2022-11-21T01:09:28;36.95;;;13.55;;
4527;SDS011;62320;51.520;6.818;2022-11-21T01:19:30;37.95;;;14.98;;
4527;SDS011;62320;51.520;6.818;2022-11-21T01:29:31;33.70;;;11.50;;
4527;SDS011;62320;51.520;6.818;2022-11-21T01:39:33;22.63;;;10.03;;
4527;SDS011;62320;51.520;6.818;2022-11-21T01:49:34;27.45;;;10.23;;
4527;SDS011;62320;51.520;6.818;2022-11-21T02:09:56;11.93;;;5.17;;
4527;SDS011;62320;51.520;6.818;2022-11-21T02:20:02;30.73;;;11.13;;
4527;SDS011;62320;51.520;6.818;2022-11-21T02:30:07;28.73;;;10.70;;
4527;SDS011;62320;51.520;6.818;2022-11-21T02:40:20;23.67;;;9.03;;
4527;SDS011;62320;51.520;6.818;2022-11-21T02:50:26;35.20;;;12.18;;
4527;SDS011;62320;51.520;6.818;2022-11-21T03:00:53;19.50;;;8.05;;
4527;SDS011;62320;51.520;6.818;2022-11-21T03:10:55;26.40;;;10.10;;
4527;SDS011;62320;51.520;6.818;2022-11-21T03:20:57;22.67;;;8.67;;
4527;SDS011;62320;51.520;6.818;2022-11-21T03:30:58;26.55;;;11.75;;
4527;SDS011;62320;51.520;6.818;2022-11-21T03:41:03;27.10;;;9.60;;
4527;SDS011;62320;51.520;6.818;2022-11-21T03:51:06;29.03;;;10.73;;
4527;SDS011;62320;51.520;6.818;2022-11-21T04:01:07;29.98;;;11.48;;
4527;SDS011;62320;51.520;6.818;2022-11-21T04:11:09;32.53;;;13.00;;
4527;SDS011;62320;51.520;6.818;2022-11-21T04:21:10;35.47;;;13.30;;
4527;SDS011;62320;51.520;6.818;2022-11-21T04:31:12;38.50;;;12.93;;
4527;SDS011;62320;51.520;6.818;2022-11-21T04:41:13;36.75;;;13.95;;
4527;SDS011;62320;51.520;6.818;2022-11-21T04:51:14;39.60;;;14.97;;
4527;SDS011;62320;51.520;6.818;2022-11-21T05:01:16;39.07;;;13.83;;
4527;SDS011;62320;51.520;6.818;2022-11-21T05:11:17;39.90;;;14.05;;
4527;SDS011;62320;51.520;6.818;2022-11-21T05:21:37;41.37;;;14.53;;
4527;SDS011;62320;51.520;6.818;2022-11-21T05:31:39;46.73;;;15.20;;
4527;SDS011;62320;51.520;6.818;2022-11-21T05:41:40;38.88;;;13.02;;
4527;SDS011;62320;51.520;6.818;2022-11-21T05:51:42;38.10;;;13.27;;
4527;SDS011;62320;51.520;6.818;2022-11-21T06:01:43;49.23;;;16.27;;
4527;SDS011;62320;51.520;6.818;2022-11-21T06:12:11;46.50;;;16.98;;
4527;SDS011;62320;51.520;6.818;2022-11-21T06:22:12;43.17;;;15.43;;
4527;SDS011;62320;51.520;6.818;2022-11-21T06:32:13;40.60;;;14.60;;
4527;SDS011;62320;51.520;6.818;2022-11-21T06:42:15;44.43;;;13.53;;
4527;SDS011;62320;51.520;6.818;2022-11-21T06:52:16;54.78;;;16.15;;
4527;SDS011;62320;51.520;6.818;2022-11-21T07:02:18;54.00;;;17.47;;
4527;SDS011;62320;51.520;6.818;2022-11-21T07:12:19;57.03;;;17.63;;
4527;SDS011;62320;51.520;6.818;2022-11-21T07:22:39;56.53;;;16.48;;
4527;SDS011;62320;51.520;6.818;2022-11-21T07:32:40;48.80;;;15.63;;
4527;SDS011;62320;51.520;6.818;2022-11-21T07:42:42;53.70;;;15.80;;
4527;SDS011;62320;51.520;6.818;2022-11-21T07:52:43;38.20;;;12.45;;
4527;SDS011;62320;51.520;6.818;2022-11-21T08:02:45;41.80;;;12.52;;
4527;SDS011;62320;51.520;6.818;2022-11-21T08:12:46;46.73;;;15.40;;
4527;SDS011;62320;51.520;6.818;2022-11-21T08:22:47;28.57;;;10.07;;
4527;SDS011;62320;51.520;6.818;2022-11-21T08:32:49;39.42;;;11.77;;
4527;SDS011;62320;51.520;6.818;2022-11-21T08:42:57;42.83;;;14.27;;
4527;SDS011;62320;51.520;6.818;2022-11-21T08:52:59;47.20;;;15.83;;
4527;SDS011;62320;51.520;6.818;2022-11-21T09:03:05;55.15;;;16.85;;
4527;SDS011;62320;51.520;6.818;2022-11-21T09:13:06;54.33;;;18.57;;
4527;SDS011;62320;51.520;6.818;2022-11-21T09:23:09;59.97;;;17.50;;
4527;SDS011;62320;51.520;6.818;2022-11-21T09:33:12;56.92;;;19.73;;
4527;SDS011;62320;51.520;6.818;2022-11-21T09:54:00;72.47;;;19.70;;
4527;SDS011;62320;51.520;6.818;2022-11-21T10:04:05;60.13;;;19.73;;
4527;SDS011;62320;51.520;6.818;2022-11-21T10:34:39;49.50;;;14.60;;
4527;SDS011;62320;51.520;6.818;2022-11-21T10:44:41;50.90;;;16.55;;
4527;SDS011;62320;51.520;6.818;2022-11-21T10:55:03;48.13;;;15.83;;
4527;SDS011;62320;51.520;6.818;2022-11-21T11:05:18;40.27;;;16.27;;
4527;SDS011;62320;51.520;6.818;2022-11-21T11:15:22;43.65;;;16.10;;
4527;SDS011;62320;51.520;6.818;2022-11-21T11:25:25;35.88;;;13.13;;
4527;SDS011;62320;51.520;6.818;2022-11-21T11:35:26;43.37;;;14.67;;
4527;SDS011;62320;51.520;6.818;2022-11-21T11:56:11;29.60;;;11.90;;
4527;SDS011;62320;51.520;6.818;2022-11-21T12:06:18;25.80;;;10.87;;
4527;SDS011;62320;51.520;6.818;2022-11-21T12:16:44;20.83;;;9.10;;
4527;SDS011;62320;51.520;6.818;2022-11-21T12:58:05;22.85;;;8.73;;
4527;SDS011;62320;51.520;6.818;2022-11-21T13:08:30;21.83;;;7.65;;
4527;SDS011;62320;51.520;6.818;2022-11-21T13:18:39;18.83;;;8.03;;
4527;SDS011;62320;51.520;6.818;2022-11-21T13:28:44;21.17;;;7.97;;
4527;SDS011;62320;51.520;6.818;2022-11-21T13:48:53;22.93;;;8.87;;
4527;SDS011;62320;51.520;6.818;2022-11-21T13:59:17;18.33;;;7.20;;
4527;SDS011;62320;51.520;6.818;2022-11-21T14:09:33;17.00;;;7.18;;
4527;SDS011;62320;51.520;6.818;2022-11-21T14:19:36;14.57;;;6.50;;
4527;SDS011;62320;51.520;6.818;2022-11-21T14:29:41;17.47;;;7.27;;
4527;SDS011;62320;51.520;6.818;2022-11-21T14:39:43;14.05;;;6.07;;
4527;SDS011;62320;51.520;6.818;2022-11-21T14:49:49;15.55;;;5.35;;
4527;SDS011;62320;51.520;6.818;2022-11-21T14:59:52;19.70;;;8.20;;
4527;SDS011;62320;51.520;6.818;2022-11-21T15:09:56;16.70;;;6.73;;
4527;SDS011;62320;51.520;6.818;2022-11-21T15:20:18;9.18;;;3.55;;
4527;SDS011;62320;51.520;6.818;2022-11-21T15:30:21;15.77;;;6.90;;
4527;SDS011;62320;51.520;6.818;2022-11-21T15:40:24;14.80;;;6.00;;
4527;SDS011;62320;51.520;6.818;2022-11-21T15:50:26;16.83;;;7.85;;
4527;SDS011;62320;51.520;6.818;2022-11-21T16:00:27;19.63;;;8.47;;
4527;SDS011;62320;51.520;6.818;2022-11-21T16:10:28;16.20;;;6.83;;
4527;SDS011;62320;51.520;6.818;2022-11-21T16:20:30;13.35;;;5.25;;
4527;SDS011;62320;51.520;6.818;2022-11-21T16:30:31;11.43;;;5.15;;
4527;SDS011;62320;51.520;6.818;2022-11-21T16:40:32;10.80;;;4.57;;
4527;SDS011;62320;51.520;6.818;2022-11-21T16:50:34;10.60;;;4.60;;
4527;SDS011;62320;51.520;6.818;2022-11-21T17:00:35;12.10;;;5.03;;
4527;SDS011;62320;51.520;6.818;2022-11-21T17:10:37;11.70;;;4.53;;
4527;SDS011;62320;51.520;6.818;2022-11-21T17:20:38;10.97;;;4.07;;
4527;SDS011;62320;51.520;6.818;2022-11-21T17:30:40;10.32;;;3.58;;
4527;SDS011;62320;51.520;6.818;2022-11-21T17:40:44;10.27;;;4.00;;
4527;SDS011;62320;51.520;6.818;2022-11-21T17:50:45;8.80;;;3.87;;
4527;SDS011;62320;51.520;6.818;2022-11-21T18:00:46;11.63;;;3.78;;
4527;SDS011;62320;51.520;6.818;2022-11-21T18:10:54;9.30;;;3.95;;
4527;SDS011;62320;51.520;6.818;2022-11-21T18:21:02;12.07;;;6.10;;
4527;SDS011;62320;51.520;6.818;2022-11-21T18:31:12;9.73;;;5.63;;
4527;SDS011;62320;51.520;6.818;2022-11-21T18:41:19;9.90;;;3.75;;
4527;SDS011;62320;51.520;6.818;2022-11-21T18:51:26;16.67;;;6.03;;
4527;SDS011;62320;51.520;6.818;2022-11-21T19:01:29;8.97;;;4.00;;
4527;SDS011;62320;51.520;6.818;2022-11-21T19:11:31;6.40;;;2.72;;
4527;SDS011;62320;51.520;6.818;2022-11-21T19:21:37;7.33;;;2.00;;
4527;SDS011;62320;51.520;6.818;2022-11-21T19:31:39;9.70;;;2.60;;
4527;SDS011;62320;51.520;6.818;2022-11-21T19:41:49;11.15;;;2.20;;
4527;SDS011;62320;51.520;6.818;2022-11-21T19:51:50;6.68;;;2.60;;
4527;SDS011;62320;51.520;6.818;2022-11-21T20:01:52;6.93;;;2.27;;
4527;SDS011;62320;51.520;6.818;2022-11-21T20:11:53;6.90;;;2.53;;
4527;SDS011;62320;51.520;6.818;2022-11-21T20:21:55;8.60;;;2.47;;
4527;SDS011;62320;51.520;6.818;2022-11-21T20:31:56;5.60;;;1.77;;
4527;SDS011;62320;51.520;6.818;2022-11-21T20:41:59;8.90;;;2.50;;
4527;SDS011;62320;51.520;6.818;2022-11-21T20:52:01;9.68;;;2.58;;
4527;SDS011;62320;51.520;6.818;2022-11-21T21:02:23;7.23;;;2.07;;
4527;SDS011;62320;51.520;6.818;2022-11-21T21:12:24;7.60;;;2.40;;
4527;SDS011;62320;51.520;6.818;2022-11-21T21:22:27;7.47;;;2.47;;
4527;SDS011;62320;51.520;6.818;2022-11-21T21:32:29;8.02;;;2.10;;
4527;SDS011;62320;51.520;6.818;2022-11-21T21:42:31;10.37;;;2.03;;
4527;SDS011;62320;51.520;6.818;2022-11-21T21:52:32;6.07;;;1.97;;
4527;SDS011;62320;51.520;6.818;2022-11-21T22:02:35;7.03;;;2.00;;
4527;SDS011;62320;51.520;6.818;2022-11-21T22:12:37;7.67;;;2.50;;
4527;SDS011;62320;51.520;6.818;2022-11-21T22:22:44;6.63;;;2.00;;
4527;SDS011;62320;51.520;6.818;2022-11-21T22:32:45;7.78;;;1.90;;
4527;SDS011;62320;51.520;6.818;2022-11-21T22:42:46;6.60;;;1.87;;
4527;SDS011;62320;51.520;6.818;2022-11-21T22:52:48;7.33;;;2.70;;
4527;SDS011;62320;51.520;6.818;2022-11-21T23:02:49;6.38;;;1.90;;
4527;SDS011;62320;51.520;6.818;2022-11-21T23:12:51;10.00;;;2.17;;
4527;SDS011;62320;51.520;6.818;2022-11-21T23:22:54;6.90;;;1.60;;
4527;SDS011;62320;51.520;6.818;2022-11-21T23:32:56;4.43;;;1.53;;
4527;SDS011;62320;51.520;6.818;2022-11-21T23:42:57;9.30;;;2.00;;
4527;SDS011;62320;51.520;6.818;2022-11-21T23:52:59;5.47;;;1.90;;
